sensor_id;sensor_type;location;lat;lon;timestamp;pressure;altitude;pressure_sealevel;temperature;humidity
54554;BME280;40450;55.848;-3.572;2023-09-30T00:00:40;99884.83;;;13.26;47.08
54554;BME280;40450;55.848;-3.572;2023-09-30T00:03:06;99885.02;;;13.38;46.85
54554;BME280;40450;55.848;-3.572;2023-09-30T00:05:31;99884.66;;;13.89;46.90
54554;BME280;40450;55.848;-3.572;2023-09-30T00:07:56;99880.94;;;14.09;46.60
54554;BME280;40450;55.848;-3.572;2023-09-30T00:10:22;99881.74;;;13.36;46.15
54554;BME280;40450;55.848;-3.572;2023-09-30T00:12:47;99883.96;;;13.49;46.74
54554;BME280;40450;55.848;-3.572;2023-09-30T00:15:12;99888.38;;;13.13;46.57
54554;BME280;40450;55.848;-3.572;2023-09-30T00:17:37;99892.95;;;13.83;46.67
54554;BME280;40450;55.848;-3.572;2023-09-30T00:20:03;99893.21;;;12.65;46.26
54554;BME280;40450;55.848;-3.572;2023-09-30T00:22:27;99898.50;;;13.42;46.56
54554;BME280;40450;55.848;-3.572;2023-09-30T00:24:53;99897.75;;;12.38;47.02
54554;BME280;40450;55.848;-3.572;2023-09-30T00:27:18;99897.80;;;12.76;47.15
54554;BME280;40450;55.848;-3.572;2023-09-30T00:29:43;99902.66;;;13.29;47.33
54554;BME280;40450;55.848;-3.572;2023-09-30T00:32:08;99902.82;;;12.43;47.55
54554;BME280;40450;55.848;-3.572;2023-09-30T00:34:34;99903.24;;;11.71;48.96
54554;BME280;40450;55.848;-3.572;2023-09-30T00:36:59;99901.69;;;10.94;50.25
54554;BME280;40450;55.848;-3.572;2023-09-30T00:39:24;99904.22;;;10.54;52.44
54554;BME280;40450;55.848;-3.572;2023-09-30T00:41:50;99909.16;;;9.82;53.64
54554;BME280;40450;55.848;-3.572;2023-09-30T00:44:15;99908.46;;;10.47;53.54
54554;BME280;40450;55.848;-3.572;2023-09-30T00:46:41;99900.15;;;11.16;53.39
54554;BME280;40450;55.848;-3.572;2023-09-30T00:49:05;99894.89;;;10.95;53.59
54554;BME280;40450;55.848;-3.572;2023-09-30T00:51:31;99889.79;;;12.27;52.82
54554;BME280;40450;55.848;-3.572;2023-09-30T00:53:59;99883.73;;;12.52;52.27
54554;BME280;40450;55.848;-3.572;2023-09-30T00:56:24;99886.25;;;13.07;51.46
54554;BME280;40450;55.848;-3.572;2023-09-30T00:58:47;99885.37;;;13.12;50.66
54554;BME280;40450;55.848;-3.572;2023-09-30T01:01:11;99889.76;;;12.49;50.39
54554;BME280;40450;55.848;-3.572;2023-09-30T01:03:36;99890.30;;;12.91;50.13
54554;BME280;40450;55.848;-3.572;2023-09-30T01:06:02;99886.59;;;12.70;50.48
54554;BME280;40450;55.848;-3.572;2023-09-30T01:08:27;99884.46;;;12.35;50.09
54554;BME280;40450;55.848;-3.572;2023-09-30T01:10:52;99888.90;;;12.21;50.54
54554;BME280;40450;55.848;-3.572;2023-09-30T01:13:17;99892.47;;;11.31;51.45
54554;BME280;40450;55.848;-3.572;2023-09-30T01:15:42;99892.03;;;10.75;53.08
54554;BME280;40450;55.848;-3.572;2023-09-30T01:18:07;99893.19;;;10.82;53.83
54554;BME280;40450;55.848;-3.572;2023-09-30T01:20:33;99892.57;;;10.24;55.42
54554;BME280;40450;55.848;-3.572;2023-09-30T01:22:58;99896.78;;;9.84;56.91
54554;BME280;40450;55.848;-3.572;2023-09-30T01:25:23;99890.51;;;10.11;57.39
54554;BME280;40450;55.848;-3.572;2023-09-30T01:27:49;99893.71;;;9.97;57.00
54554;BME280;40450;55.848;-3.572;2023-09-30T01:30:15;99895.30;;;9.96;57.28
54554;BME280;40450;55.848;-3.572;2023-09-30T01:32:39;99893.55;;;10.21;57.16
54554;BME280;40450;55.848;-3.572;2023-09-30T01:35:05;99900.52;;;10.57;57.42
54554;BME280;40450;55.848;-3.572;2023-09-30T01:37:30;99907.11;;;9.99;58.20
54554;BME280;40450;55.848;-3.572;2023-09-30T01:39:55;99902.86;;;10.10;58.37
54554;BME280;40450;55.848;-3.572;2023-09-30T01:42:20;99897.33;;;10.74;57.19
54554;BME280;40450;55.848;-3.572;2023-09-30T01:44:45;99896.54;;;12.09;56.78
54554;BME280;40450;55.848;-3.572;2023-09-30T01:47:10;99894.31;;;12.66;55.73
54554;BME280;40450;55.848;-3.572;2023-09-30T01:49:36;99896.96;;;13.09;54.44
54554;BME280;40450;55.848;-3.572;2023-09-30T01:52:01;99898.76;;;13.06;53.12
54554;BME280;40450;55.848;-3.572;2023-09-30T01:54:26;99906.99;;;13.33;52.76
54554;BME280;40450;55.848;-3.572;2023-09-30T01:56:51;99908.34;;;13.29;52.17
54554;BME280;40450;55.848;-3.572;2023-09-30T01:59:16;99913.78;;;13.51;51.56
54554;BME280;40450;55.848;-3.572;2023-09-30T02:01:41;99916.02;;;13.05;50.48
54554;BME280;40450;55.848;-3.572;2023-09-30T02:04:07;99921.93;;;12.34;50.82
54554;BME280;40450;55.848;-3.572;2023-09-30T02:06:32;99929.58;;;11.99;51.34
54554;BME280;40450;55.848;-3.572;2023-09-30T02:08:57;99934.56;;;11.56;52.06
54554;BME280;40450;55.848;-3.572;2023-09-30T02:11:22;99935.32;;;11.05;52.77
54554;BME280;40450;55.848;-3.572;2023-09-30T02:13:48;99924.23;;;12.15;53.19
54554;BME280;40450;55.848;-3.572;2023-09-30T02:16:14;99915.34;;;13.09;53.35
54554;BME280;40450;55.848;-3.572;2023-09-30T02:18:39;99918.63;;;13.65;52.09
54554;BME280;40450;55.848;-3.572;2023-09-30T02:21:04;99914.96;;;13.43;50.75
54554;BME280;40450;55.848;-3.572;2023-09-30T02:23:29;99912.86;;;13.79;50.72
54554;BME280;40450;55.848;-3.572;2023-09-30T02:25:54;99915.07;;;14.35;49.99
54554;BME280;40450;55.848;-3.572;2023-09-30T02:28:19;99917.51;;;13.11;49.04
54554;BME280;40450;55.848;-3.572;2023-09-30T02:30:45;99931.87;;;13.17;50.15
54554;BME280;40450;55.848;-3.572;2023-09-30T02:33:10;99940.86;;;13.84;48.96
54554;BME280;40450;55.848;-3.572;2023-09-30T02:35:35;99941.87;;;13.51;49.39
54554;BME280;40450;55.848;-3.572;2023-09-30T02:38:00;99939.23;;;13.85;48.54
54554;BME280;40450;55.848;-3.572;2023-09-30T02:40:25;99932.23;;;13.33;48.28
54554;BME280;40450;55.848;-3.572;2023-09-30T02:42:51;99928.74;;;13.63;48.22
54554;BME280;40450;55.848;-3.572;2023-09-30T02:45:16;99923.39;;;12.99;49.43
54554;BME280;40450;55.848;-3.572;2023-09-30T02:47:42;99919.65;;;13.94;49.49
54554;BME280;40450;55.848;-3.572;2023-09-30T02:50:09;99920.25;;;14.56;49.18
54554;BME280;40450;55.848;-3.572;2023-09-30T02:52:32;99922.24;;;14.21;48.15
54554;BME280;40450;55.848;-3.572;2023-09-30T02:54:58;99928.22;;;13.12;47.92
54554;BME280;40450;55.848;-3.572;2023-09-30T02:57:23;99932.05;;;13.19;47.91
54554;BME280;40450;55.848;-3.572;2023-09-30T02:59:48;99927.67;;;14.01;48.96
54554;BME280;40450;55.848;-3.572;2023-09-30T03:02:13;99921.06;;;14.68;47.83
54554;BME280;40450;55.848;-3.572;2023-09-30T03:04:38;99932.98;;;14.03;46.40
54554;BME280;40450;55.848;-3.572;2023-09-30T03:07:04;99931.21;;;13.49;46.87
54554;BME280;40450;55.848;-3.572;2023-09-30T03:09:29;99928.10;;;11.34;49.42
54554;BME280;40450;55.848;-3.572;2023-09-30T03:11:54;99929.15;;;11.58;51.06
54554;BME280;40450;55.848;-3.572;2023-09-30T03:14:19;99926.30;;;11.68;51.33
54554;BME280;40450;55.848;-3.572;2023-09-30T03:16:44;99929.22;;;11.31;52.01
54554;BME280;40450;55.848;-3.572;2023-09-30T03:19:10;99942.97;;;10.84;52.82
54554;BME280;40450;55.848;-3.572;2023-09-30T03:21:35;99952.45;;;9.74;55.34
54554;BME280;40450;55.848;-3.572;2023-09-30T03:24:01;99953.91;;;10.07;56.07
54554;BME280;40450;55.848;-3.572;2023-09-30T03:26:28;99956.87;;;8.95;59.20
54554;BME280;40450;55.848;-3.572;2023-09-30T03:28:51;99948.69;;;8.34;61.05
54554;BME280;40450;55.848;-3.572;2023-09-30T03:31:19;99943.40;;;9.28;60.09
54554;BME280;40450;55.848;-3.572;2023-09-30T03:33:41;99938.69;;;9.40;60.10
54554;BME280;40450;55.848;-3.572;2023-09-30T03:36:08;99938.68;;;9.66;60.89
54554;BME280;40450;55.848;-3.572;2023-09-30T03:38:32;99937.99;;;10.08;59.84
54554;BME280;40450;55.848;-3.572;2023-09-30T03:40:59;99939.71;;;9.08;60.86
54554;BME280;40450;55.848;-3.572;2023-09-30T03:43:25;99938.32;;;10.23;60.71
54554;BME280;40450;55.848;-3.572;2023-09-30T03:45:49;99951.92;;;9.36;61.23
54554;BME280;40450;55.848;-3.572;2023-09-30T03:48:14;99954.03;;;9.90;60.83
54554;BME280;40450;55.848;-3.572;2023-09-30T03:50:39;99963.00;;;9.10;61.51
54554;BME280;40450;55.848;-3.572;2023-09-30T03:53:05;99966.97;;;9.40;61.10
54554;BME280;40450;55.848;-3.572;2023-09-30T03:55:30;99963.17;;;10.58;60.56
54554;BME280;40450;55.848;-3.572;2023-09-30T03:57:55;99963.12;;;10.67;59.24
54554;BME280;40450;55.848;-3.572;2023-09-30T04:00:20;99961.88;;;10.34;58.29
54554;BME280;40450;55.848;-3.572;2023-09-30T04:02:45;99957.89;;;10.73;58.08
54554;BME280;40450;55.848;-3.572;2023-09-30T04:05:10;99957.60;;;10.65;57.51
54554;BME280;40450;55.848;-3.572;2023-09-30T04:07:36;99965.25;;;10.36;57.52
54554;BME280;40450;55.848;-3.572;2023-09-30T04:10:01;99977.52;;;10.35;57.60
54554;BME280;40450;55.848;-3.572;2023-09-30T04:12:26;99982.17;;;10.93;57.74
54554;BME280;40450;55.848;-3.572;2023-09-30T04:14:51;99983.83;;;10.58;58.48
54554;BME280;40450;55.848;-3.572;2023-09-30T04:17:16;99990.85;;;10.87;57.60
54554;BME280;40450;55.848;-3.572;2023-09-30T04:19:42;99992.39;;;11.72;57.42
54554;BME280;40450;55.848;-3.572;2023-09-30T04:22:07;99989.25;;;12.23;57.61
54554;BME280;40450;55.848;-3.572;2023-09-30T04:24:32;99984.29;;;12.86;56.55
54554;BME280;40450;55.848;-3.572;2023-09-30T04:26:57;99977.50;;;12.98;55.72
54554;BME280;40450;55.848;-3.572;2023-09-30T04:29:22;99983.01;;;13.76;55.04
54554;BME280;40450;55.848;-3.572;2023-09-30T04:31:48;99991.77;;;14.04;53.55
54554;BME280;40450;55.848;-3.572;2023-09-30T04:34:13;99995.45;;;14.08;53.08
54554;BME280;40450;55.848;-3.572;2023-09-30T04:36:38;99991.66;;;13.60;51.80
54554;BME280;40450;55.848;-3.572;2023-09-30T04:39:03;99988.43;;;13.54;51.48
54554;BME280;40450;55.848;-3.572;2023-09-30T04:41:28;99989.15;;;13.86;52.01
54554;BME280;40450;55.848;-3.572;2023-09-30T04:43:53;99986.14;;;14.47;51.50
54554;BME280;40450;55.848;-3.572;2023-09-30T04:46:19;99976.86;;;12.83;50.83
54554;BME280;40450;55.848;-3.572;2023-09-30T04:48:44;99978.36;;;13.49;51.29
54554;BME280;40450;55.848;-3.572;2023-09-30T04:51:09;99981.88;;;11.98;52.26
54554;BME280;40450;55.848;-3.572;2023-09-30T04:53:34;99983.72;;;11.92;53.36
54554;BME280;40450;55.848;-3.572;2023-09-30T04:55:59;99981.82;;;11.35;54.36
54554;BME280;40450;55.848;-3.572;2023-09-30T04:58:25;99982.49;;;11.92;54.72
54554;BME280;40450;55.848;-3.572;2023-09-30T05:00:50;99980.55;;;12.62;55.42
54554;BME280;40450;55.848;-3.572;2023-09-30T05:03:15;99981.39;;;11.94;54.92
54554;BME280;40450;55.848;-3.572;2023-09-30T05:05:40;99983.52;;;12.92;55.28
54554;BME280;40450;55.848;-3.572;2023-09-30T05:08:05;99977.88;;;13.76;54.19
54554;BME280;40450;55.848;-3.572;2023-09-30T05:10:31;99967.91;;;14.08;53.78
54554;BME280;40450;55.848;-3.572;2023-09-30T05:12:56;99962.26;;;14.54;52.77
54554;BME280;40450;55.848;-3.572;2023-09-30T05:15:21;99957.96;;;15.03;52.26
54554;BME280;40450;55.848;-3.572;2023-09-30T05:17:46;99961.75;;;15.43;51.42
54554;BME280;40450;55.848;-3.572;2023-09-30T05:20:11;99960.42;;;15.62;50.65
54554;BME280;40450;55.848;-3.572;2023-09-30T05:22:36;99958.82;;;15.36;49.84
54554;BME280;40450;55.848;-3.572;2023-09-30T05:25:02;99964.99;;;15.39;49.03
54554;BME280;40450;55.848;-3.572;2023-09-30T05:27:27;99972.99;;;15.50;49.07
54554;BME280;40450;55.848;-3.572;2023-09-30T05:29:53;99971.40;;;15.45;48.32
54554;BME280;40450;55.848;-3.572;2023-09-30T05:32:18;99964.12;;;15.44;47.53
54554;BME280;40450;55.848;-3.572;2023-09-30T05:34:43;99968.79;;;15.75;47.28
54554;BME280;40450;55.848;-3.572;2023-09-30T05:37:08;99961.07;;;15.45;46.57
54554;BME280;40450;55.848;-3.572;2023-09-30T05:39:33;99956.62;;;15.80;46.82
54554;BME280;40450;55.848;-3.572;2023-09-30T05:41:58;99962.77;;;15.76;46.59
54554;BME280;40450;55.848;-3.572;2023-09-30T05:44:24;99965.97;;;15.77;46.15
54554;BME280;40450;55.848;-3.572;2023-09-30T05:46:49;99965.40;;;15.27;45.48
54554;BME280;40450;55.848;-3.572;2023-09-30T05:49:14;99967.37;;;15.36;45.15
54554;BME280;40450;55.848;-3.572;2023-09-30T05:51:40;99966.48;;;14.76;45.27
54554;BME280;40450;55.848;-3.572;2023-09-30T05:54:05;99967.83;;;14.73;44.47
54554;BME280;40450;55.848;-3.572;2023-09-30T05:56:30;99971.98;;;14.65;44.97
54554;BME280;40450;55.848;-3.572;2023-09-30T05:58:55;99968.76;;;14.52;44.66
54554;BME280;40450;55.848;-3.572;2023-09-30T06:01:20;99968.48;;;14.24;44.62
54554;BME280;40450;55.848;-3.572;2023-09-30T06:03:46;99969.46;;;14.30;45.10
54554;BME280;40450;55.848;-3.572;2023-09-30T06:06:11;99973.67;;;12.90;45.74
54554;BME280;40450;55.848;-3.572;2023-09-30T06:08:35;99978.08;;;12.42;46.69
54554;BME280;40450;55.848;-3.572;2023-09-30T06:11:01;99978.21;;;12.30;47.63
54554;BME280;40450;55.848;-3.572;2023-09-30T06:13:26;99986.67;;;12.43;48.71
54554;BME280;40450;55.848;-3.572;2023-09-30T06:15:51;99992.69;;;11.14;50.70
54554;BME280;40450;55.848;-3.572;2023-09-30T06:18:16;99996.04;;;10.74;52.08
54554;BME280;40450;55.848;-3.572;2023-09-30T06:20:42;99998.85;;;12.13;51.53
54554;BME280;40450;55.848;-3.572;2023-09-30T06:23:07;99999.24;;;12.68;51.52
54554;BME280;40450;55.848;-3.572;2023-09-30T06:25:32;99990.18;;;13.10;51.42
54554;BME280;40450;55.848;-3.572;2023-09-30T06:27:57;99994.61;;;13.48;51.48
54554;BME280;40450;55.848;-3.572;2023-09-30T06:30:23;99997.87;;;14.30;50.86
54554;BME280;40450;55.848;-3.572;2023-09-30T06:32:48;99994.63;;;14.24;49.74
54554;BME280;40450;55.848;-3.572;2023-09-30T06:35:13;100000.14;;;14.03;49.58
54554;BME280;40450;55.848;-3.572;2023-09-30T06:37:38;100009.35;;;13.59;49.23
54554;BME280;40450;55.848;-3.572;2023-09-30T06:40:04;100013.74;;;13.36;49.24
54554;BME280;40450;55.848;-3.572;2023-09-30T06:42:29;100015.25;;;13.28;49.61
54554;BME280;40450;55.848;-3.572;2023-09-30T06:44:54;100013.12;;;13.99;49.81
54554;BME280;40450;55.848;-3.572;2023-09-30T06:47:19;100003.92;;;14.23;49.83
54554;BME280;40450;55.848;-3.572;2023-09-30T06:49:44;100000.74;;;14.29;48.80
54554;BME280;40450;55.848;-3.572;2023-09-30T06:52:09;99997.39;;;13.58;49.06
54554;BME280;40450;55.848;-3.572;2023-09-30T06:54:34;100004.25;;;13.87;49.06
54554;BME280;40450;55.848;-3.572;2023-09-30T06:57:00;100011.85;;;13.18;49.12
54554;BME280;40450;55.848;-3.572;2023-09-30T06:59:24;100020.35;;;13.13;49.10
54554;BME280;40450;55.848;-3.572;2023-09-30T07:01:50;100020.85;;;13.50;49.55
54554;BME280;40450;55.848;-3.572;2023-09-30T07:04:15;100028.94;;;14.33;50.01
54554;BME280;40450;55.848;-3.572;2023-09-30T07:06:40;100029.31;;;13.79;49.59
54554;BME280;40450;55.848;-3.572;2023-09-30T07:09:05;100017.43;;;14.19;49.60
54554;BME280;40450;55.848;-3.572;2023-09-30T07:11:31;100014.74;;;14.22;49.73
54554;BME280;40450;55.848;-3.572;2023-09-30T07:13:56;100015.29;;;13.25;49.73
54554;BME280;40450;55.848;-3.572;2023-09-30T07:16:21;100008.07;;;13.86;49.53
54554;BME280;40450;55.848;-3.572;2023-09-30T07:18:46;100003.56;;;13.68;49.61
54554;BME280;40450;55.848;-3.572;2023-09-30T07:21:12;100004.64;;;14.17;50.27
54554;BME280;40450;55.848;-3.572;2023-09-30T07:23:36;100005.34;;;14.21;49.67
54554;BME280;40450;55.848;-3.572;2023-09-30T07:26:01;100002.45;;;14.16;49.41
54554;BME280;40450;55.848;-3.572;2023-09-30T07:28:27;100002.52;;;14.53;49.43
54554;BME280;40450;55.848;-3.572;2023-09-30T07:30:52;99999.86;;;14.92;49.26
54554;BME280;40450;55.848;-3.572;2023-09-30T07:33:17;99989.59;;;15.61;48.85
54554;BME280;40450;55.848;-3.572;2023-09-30T07:35:42;99994.94;;;15.00;47.48
54554;BME280;40450;55.848;-3.572;2023-09-30T07:38:07;99996.16;;;14.73;47.45
54554;BME280;40450;55.848;-3.572;2023-09-30T07:40:32;99998.64;;;14.90;47.62
54554;BME280;40450;55.848;-3.572;2023-09-30T07:42:58;99999.09;;;14.88;47.11
54554;BME280;40450;55.848;-3.572;2023-09-30T07:45:24;99995.08;;;15.27;47.82
54554;BME280;40450;55.848;-3.572;2023-09-30T07:47:49;99998.49;;;15.16;47.11
54554;BME280;40450;55.848;-3.572;2023-09-30T07:50:14;100003.59;;;15.01;47.24
54554;BME280;40450;55.848;-3.572;2023-09-30T07:52:39;100013.30;;;14.95;46.89
54554;BME280;40450;55.848;-3.572;2023-09-30T07:55:05;100013.51;;;14.82;47.20
54554;BME280;40450;55.848;-3.572;2023-09-30T07:57:29;100014.81;;;15.08;47.03
54554;BME280;40450;55.848;-3.572;2023-09-30T07:59:55;100021.16;;;15.12;47.50
54554;BME280;40450;55.848;-3.572;2023-09-30T08:02:20;100018.45;;;14.53;47.98
54554;BME280;40450;55.848;-3.572;2023-09-30T08:04:45;100019.25;;;15.88;47.68
54554;BME280;40450;55.848;-3.572;2023-09-30T08:07:10;100023.48;;;15.38;46.76
54554;BME280;40450;55.848;-3.572;2023-09-30T08:09:35;100029.01;;;15.68;46.73
54554;BME280;40450;55.848;-3.572;2023-09-30T08:12:00;100026.05;;;15.32;46.70
54554;BME280;40450;55.848;-3.572;2023-09-30T08:14:25;100024.81;;;14.02;47.12
54554;BME280;40450;55.848;-3.572;2023-09-30T08:16:51;100023.27;;;12.86;48.98
54554;BME280;40450;55.848;-3.572;2023-09-30T08:19:16;100017.47;;;12.85;49.46
54554;BME280;40450;55.848;-3.572;2023-09-30T08:21:41;100017.14;;;13.52;50.14
54554;BME280;40450;55.848;-3.572;2023-09-30T08:24:07;100017.56;;;12.54;50.52
54554;BME280;40450;55.848;-3.572;2023-09-30T08:26:31;100010.33;;;13.41;50.94
54554;BME280;40450;55.848;-3.572;2023-09-30T08:28:57;100007.03;;;14.41;51.03
54554;BME280;40450;55.848;-3.572;2023-09-30T08:31:22;100001.77;;;14.04;50.13
54554;BME280;40450;55.848;-3.572;2023-09-30T08:33:47;99997.41;;;14.64;50.84
54554;BME280;40450;55.848;-3.572;2023-09-30T08:36:12;99998.41;;;14.69;50.04
54554;BME280;40450;55.848;-3.572;2023-09-30T08:38:39;99996.24;;;15.39;49.74
54554;BME280;40450;55.848;-3.572;2023-09-30T08:41:03;99995.05;;;15.82;48.75
54554;BME280;40450;55.848;-3.572;2023-09-30T08:43:29;99993.78;;;15.39;49.24
54554;BME280;40450;55.848;-3.572;2023-09-30T08:45:54;99994.76;;;16.07;48.22
54554;BME280;40450;55.848;-3.572;2023-09-30T08:48:19;99990.22;;;15.64;47.27
54554;BME280;40450;55.848;-3.572;2023-09-30T08:50:44;99990.26;;;14.66;47.48
54554;BME280;40450;55.848;-3.572;2023-09-30T08:53:10;99990.53;;;14.73;47.47
54554;BME280;40450;55.848;-3.572;2023-09-30T08:55:35;99984.50;;;15.07;48.25
54554;BME280;40450;55.848;-3.572;2023-09-30T08:58:00;99989.22;;;15.77;48.25
54554;BME280;40450;55.848;-3.572;2023-09-30T09:00:25;99993.17;;;15.23;46.57
54554;BME280;40450;55.848;-3.572;2023-09-30T09:02:51;99995.89;;;14.78;47.44
54554;BME280;40450;55.848;-3.572;2023-09-30T09:05:16;99997.51;;;15.69;46.94
54554;BME280;40450;55.848;-3.572;2023-09-30T09:07:42;99999.06;;;15.35;47.56
54554;BME280;40450;55.848;-3.572;2023-09-30T09:10:07;100005.99;;;16.32;46.79
54554;BME280;40450;55.848;-3.572;2023-09-30T09:12:32;100007.55;;;16.73;47.41
54554;BME280;40450;55.848;-3.572;2023-09-30T09:14:56;100000.85;;;15.49;45.86
54554;BME280;40450;55.848;-3.572;2023-09-30T09:17:22;100000.09;;;16.66;46.49
54554;BME280;40450;55.848;-3.572;2023-09-30T09:22:12;99989.71;;;17.41;46.27
54554;BME280;40450;55.848;-3.572;2023-09-30T09:24:37;99995.07;;;16.42;44.86
54554;BME280;40450;55.848;-3.572;2023-09-30T09:27:07;99999.08;;;16.12;45.15
54554;BME280;40450;55.848;-3.572;2023-09-30T09:29:27;99993.09;;;16.72;45.83
54554;BME280;40450;55.848;-3.572;2023-09-30T09:32:07;100001.77;;;16.30;44.93
54554;BME280;40450;55.848;-3.572;2023-09-30T09:34:18;100000.45;;;14.70;45.47
54554;BME280;40450;55.848;-3.572;2023-09-30T09:36:44;99999.59;;;15.69;45.79
54554;BME280;40450;55.848;-3.572;2023-09-30T09:39:08;100002.06;;;15.32;45.87
54554;BME280;40450;55.848;-3.572;2023-09-30T09:43:59;99999.23;;;15.97;46.44
54554;BME280;40450;55.848;-3.572;2023-09-30T09:46:23;100001.75;;;15.57;46.10
54554;BME280;40450;55.848;-3.572;2023-09-30T09:48:49;100002.24;;;15.12;46.14
54554;BME280;40450;55.848;-3.572;2023-09-30T09:51:14;100004.75;;;15.24;46.38
54554;BME280;40450;55.848;-3.572;2023-09-30T09:53:41;100001.90;;;15.17;47.04
54554;BME280;40450;55.848;-3.572;2023-09-30T09:56:04;100000.43;;;15.14;47.20
54554;BME280;40450;55.848;-3.572;2023-09-30T09:58:32;99996.00;;;15.63;46.88
54554;BME280;40450;55.848;-3.572;2023-09-30T10:00:56;99984.23;;;15.02;46.47
54554;BME280;40450;55.848;-3.572;2023-09-30T10:03:19;99976.82;;;15.50;47.08
54554;BME280;40450;55.848;-3.572;2023-09-30T10:05:45;99975.42;;;16.08;46.66
54554;BME280;40450;55.848;-3.572;2023-09-30T10:08:14;99971.42;;;15.44;46.00
54554;BME280;40450;55.848;-3.572;2023-09-30T10:10:36;99967.66;;;15.25;46.18
54554;BME280;40450;55.848;-3.572;2023-09-30T10:13:01;99964.37;;;15.09;45.93
54554;BME280;40450;55.848;-3.572;2023-09-30T10:15:36;99963.12;;;16.06;45.97
54554;BME280;40450;55.848;-3.572;2023-09-30T10:17:58;99957.22;;;15.75;45.29
54554;BME280;40450;55.848;-3.572;2023-09-30T10:20:16;99953.91;;;15.55;44.89
54554;BME280;40450;55.848;-3.572;2023-09-30T10:22:41;99951.74;;;16.43;44.90
54554;BME280;40450;55.848;-3.572;2023-09-30T10:27:34;99947.31;;;17.04;43.63
54554;BME280;40450;55.848;-3.572;2023-09-30T10:29:57;99946.36;;;17.83;43.67
54554;BME280;40450;55.848;-3.572;2023-09-30T10:32:22;99944.09;;;18.25;43.58
54554;BME280;40450;55.848;-3.572;2023-09-30T10:34:48;99941.06;;;18.42;43.28
54554;BME280;40450;55.848;-3.572;2023-09-30T10:37:20;99923.70;;;18.83;42.98
54554;BME280;40450;55.848;-3.572;2023-09-30T10:39:52;99920.25;;;18.47;41.48
54554;BME280;40450;55.848;-3.572;2023-09-30T10:42:02;99925.68;;;18.22;41.18
54554;BME280;40450;55.848;-3.572;2023-09-30T10:44:33;99921.97;;;17.36;40.91
54554;BME280;40450;55.848;-3.572;2023-09-30T10:46:53;99919.36;;;18.19;41.32
54554;BME280;40450;55.848;-3.572;2023-09-30T10:49:31;99919.89;;;17.58;40.91
54554;BME280;40450;55.848;-3.572;2023-09-30T10:51:43;99937.08;;;17.89;41.84
54554;BME280;40450;55.848;-3.572;2023-09-30T10:54:08;99934.10;;;17.61;40.75
54554;BME280;40450;55.848;-3.572;2023-09-30T10:56:33;99928.50;;;17.04;40.68
54554;BME280;40450;55.848;-3.572;2023-09-30T10:58:58;99924.41;;;17.52;41.01
54554;BME280;40450;55.848;-3.572;2023-09-30T11:01:24;99923.04;;;16.71;40.87
54554;BME280;40450;55.848;-3.572;2023-09-30T11:03:50;99929.20;;;16.00;41.82
54554;BME280;40450;55.848;-3.572;2023-09-30T11:06:15;99930.34;;;16.64;42.13
54554;BME280;40450;55.848;-3.572;2023-09-30T11:08:41;99934.02;;;16.60;41.37
54554;BME280;40450;55.848;-3.572;2023-09-30T11:11:04;99932.39;;;16.34;41.90
54554;BME280;40450;55.848;-3.572;2023-09-30T11:13:33;99932.57;;;16.71;42.08
54554;BME280;40450;55.848;-3.572;2023-09-30T11:15:59;99940.90;;;17.25;41.37
54554;BME280;40450;55.848;-3.572;2023-09-30T11:18:20;99941.06;;;17.10;41.90
54554;BME280;40450;55.848;-3.572;2023-09-30T11:20:45;99935.06;;;16.99;41.91
54554;BME280;40450;55.848;-3.572;2023-09-30T11:23:15;99927.63;;;17.18;41.76
54554;BME280;40450;55.848;-3.572;2023-09-30T11:25:35;99938.68;;;16.36;41.98
54554;BME280;40450;55.848;-3.572;2023-09-30T11:28:13;99938.30;;;16.89;42.16
54554;BME280;40450;55.848;-3.572;2023-09-30T11:30:25;99932.04;;;16.92;42.70
54554;BME280;40450;55.848;-3.572;2023-09-30T11:32:58;99930.03;;;16.57;42.47
54554;BME280;40450;55.848;-3.572;2023-09-30T11:35:21;99933.97;;;16.84;42.54
54554;BME280;40450;55.848;-3.572;2023-09-30T11:37:43;99927.52;;;16.74;42.78
54554;BME280;40450;55.848;-3.572;2023-09-30T11:40:10;99926.47;;;16.73;43.06
54554;BME280;40450;55.848;-3.572;2023-09-30T11:42:31;99923.17;;;16.99;42.88
54554;BME280;40450;55.848;-3.572;2023-09-30T11:44:56;99923.34;;;16.64;42.71
54554;BME280;40450;55.848;-3.572;2023-09-30T11:47:29;99928.13;;;16.64;43.16
54554;BME280;40450;55.848;-3.572;2023-09-30T11:49:52;99930.80;;;16.58;43.50
54554;BME280;40450;55.848;-3.572;2023-09-30T11:52:12;99937.58;;;16.22;43.71
54554;BME280;40450;55.848;-3.572;2023-09-30T11:54:38;99937.82;;;16.88;43.93
54554;BME280;40450;55.848;-3.572;2023-09-30T11:57:02;99927.01;;;16.40;43.54
54554;BME280;40450;55.848;-3.572;2023-09-30T11:59:26;99927.66;;;16.43;43.67
54554;BME280;40450;55.848;-3.572;2023-09-30T12:01:52;99920.22;;;16.26;43.70
54554;BME280;40450;55.848;-3.572;2023-09-30T12:04:17;99913.23;;;15.23;44.54
54554;BME280;40450;55.848;-3.572;2023-09-30T12:06:42;99911.87;;;16.40;44.56
54554;BME280;40450;55.848;-3.572;2023-09-30T12:09:07;99906.57;;;16.66;44.56
54554;BME280;40450;55.848;-3.572;2023-09-30T12:11:32;99898.59;;;15.05;44.97
54554;BME280;40450;55.848;-3.572;2023-09-30T12:13:57;99889.25;;;15.86;44.84
54554;BME280;40450;55.848;-3.572;2023-09-30T12:16:23;99887.02;;;15.29;44.75
54554;BME280;40450;55.848;-3.572;2023-09-30T12:18:48;99881.84;;;15.17;45.24
54554;BME280;40450;55.848;-3.572;2023-09-30T12:21:13;99878.59;;;16.52;45.39
54554;BME280;40450;55.848;-3.572;2023-09-30T12:23:39;99876.13;;;16.17;45.12
54554;BME280;40450;55.848;-3.572;2023-09-30T12:26:04;99878.69;;;15.58;45.08
54554;BME280;40450;55.848;-3.572;2023-09-30T12:28:29;99880.41;;;15.14;45.98
54554;BME280;40450;55.848;-3.572;2023-09-30T12:30:54;99876.94;;;16.21;46.04
54554;BME280;40450;55.848;-3.572;2023-09-30T12:33:20;99870.01;;;17.15;45.32
54554;BME280;40450;55.848;-3.572;2023-09-30T12:35:45;99873.33;;;16.99;44.66
54554;BME280;40450;55.848;-3.572;2023-09-30T12:38:10;99877.98;;;16.91;44.53
54554;BME280;40450;55.848;-3.572;2023-09-30T12:40:35;99876.29;;;17.62;44.15
54554;BME280;40450;55.848;-3.572;2023-09-30T12:43:00;99873.59;;;17.25;43.81